Detalii statie BONGA [00001D00]

Toti senzorii

Date Temperatura solului [C]Precipitatii [mm]Voltaj baterie [mV]Leaf Wetness [Min]HC Air temperature [C]HC Relative humidity [%]Punctul de roua [C]
medieminmaxsumaultimatimpmedieminmaxmediemediemin
2017-12-10 22:00:00 0.6 0.6 0.7 0 6942 -2.54 -3.74 -1.51 0 0 0
2017-12-10 23:00:00 0.6 0.5 0.7 0 6922 -3.66 -4.62 -3.06 0 0 0
2017-12-11 00:00:00 0.4 0.4 0.5 0 6942 -3.03 -3.99 -2.61 0 0 0
2017-12-11 01:00:00 0.4 0.4 0.5 0 6922 -3.29 -3.55 -3.01 0 0 0
2017-12-11 02:00:00 0.3 0.2 0.5 0 6922 -3.59 -4 -3.07 0 0 0
2017-12-11 03:00:00 0.3 0.3 0.4 0 6932 -2.36 -3.16 -1.6 0 0 0
2017-12-11 04:00:00 0.4 0.3 0.6 0 6932 -1.15 -1.61 -0.85 0 0 0
2017-12-11 05:00:00 0.4 0.3 0.5 0 6942 -0.74 -1.09 -0.1 0 0 0
2017-12-11 06:00:00 0.4 0.4 0.5 0 6942 -0.2 -0.37 -0.01 0 0 0
2017-12-11 07:00:00 0.4 0.4 0.6 0 6932 -0.15 -0.25 -0.02 0 0 0
2017-12-11 08:00:00 0.5 0.5 0.6 0 6932 -0.15 -0.24 0.02 0 0 0
2017-12-11 09:00:00 0.5 0.5 0.7 0 7088 1.3 -0.16 2.82 0 0 0
2017-12-11 10:00:00 0.6 0.6 0.7 0 7080 2.96 2.73 3.12 0 0 0
2017-12-11 11:00:00 0.7 0.7 0.9 0 7088 2.49 2.01 3.13 0 0 0
2017-12-11 12:00:00 0.8 0.8 1 0 7186 1.38 1.14 1.93 0 0 0
2017-12-11 13:00:00 1 0.9 1.2 0 7294 1.52 1.24 1.76 0 0 0
2017-12-11 14:00:00 1.1 1.1 1.3 0 7216 1.58 1.48 1.7 0 0 0
2017-12-11 15:00:00 1.2 1.2 1.3 0 7186 1.59 1.44 1.7 0 0 0
2017-12-11 16:00:00 1.2 1.1 1.3 0 7108 1.34 1.15 1.47 0 0 0
2017-12-11 17:00:00 1.1 1.1 1.3 0 7050 0.94 0.54 1.2 0 0 0
2017-12-11 18:00:00 1.1 1.1 1.2 0 7020 0.69 0.5 0.99 0 0 0
2017-12-11 19:00:00 1.1 1.1 1.2 0 7000 0.9 0.71 1.14 0 0 0
2017-12-11 20:00:00 1.1 1.1 1.2 0 6982 0.99 0.65 1.36 0 0 0
2017-12-11 21:00:00 1.1 1.1 1.2 0 6972 1.36 1.15 1.57 0 0 0
2017-12-11 22:00:00 1.2 1.1 1.3 0 6962 1.38 1.15 1.52 0 0 0
2017-12-11 23:00:00 1.2 1.1 1.3 0 6952 1.04 0.76 1.25 0 0 0
2017-12-12 00:00:00 1.2 1.1 1.4 0 6942 1.03 0.59 1.43 0 0 0
2017-12-12 01:00:00 1.2 1.1 1.4 0 6942 0.99 0.37 1.36 0 0 0
2017-12-12 02:00:00 1.2 1.1 1.4 0 6932 0.84 0.29 1.27 0 0 0
2017-12-12 03:00:00 1.1 1.1 1.4 0 6932 0.72 0.51 0.95 0 0 0
2017-12-12 04:00:00 1.1 1.1 1.2 0 6932 0.72 0.54 0.87 0 0 0
2017-12-12 05:00:00 1.1 0.9 1.2 0 6932 1 0.74 1.28 0 0 0
2017-12-12 06:00:00 1.1 1.1 1.2 0 6922 1.3 0.99 1.57 0 0 0
2017-12-12 07:00:00 1.1 1 1.2 0 6922 1.06 0.98 1.14 0 0 0
2017-12-12 08:00:00 1.1 1.1 1.3 0 6922 1.16 0.88 1.49 0 0 0
2017-12-12 09:00:00 1.1 1.1 1.3 0 7000 1.54 0.92 1.83 0 0 0
2017-12-12 10:00:00 1.3 1.2 1.5 0 7304 1.85 1.57 2.08 0 0 0
2017-12-12 11:00:00 1.5 1.5 1.9 0 7362 2.74 1.96 3.68 0 0 0
2017-12-12 12:00:00 1.9 1.8 2.1 0 7342 3.89 3.66 4.21 0 0 0
2017-12-12 13:00:00 2.1 2 2.4 0 7254 4.46 4.32 4.57 0 0 0
2017-12-12 14:00:00 2.3 2.1 2.5 0 7226 4.62 4.5 4.72 0 0 0
2017-12-12 15:00:00 2.4 2.4 2.5 0 7166 4.65 4.5 4.81 0 0 0
2017-12-12 16:00:00 2.3 2.2 2.5 0 7088 4.49 4.25 4.79 0 0 0
2017-12-12 17:00:00 2.2 2.1 2.4 0 7060 3.91 3.69 4.12 0 0 0
2017-12-12 18:00:00 2.2 2.2 2.4 0 7040 3.76 3.54 3.94 0 0 0
2017-12-12 19:00:00 2.1 2.1 2.3 0 7030 4.1 3.73 4.49 0 0 0
2017-12-12 20:00:00 2.1 2.1 2.2 0 7020 3.62 2.41 3.98 0 0 0
2017-12-12 21:00:00 2 1.8 2.1 0 7000 3.28 2.57 3.87 0 0 0